Time;durP1;ratioP1;P1;durP2;ratioP2;P2;SDS_P1;SDS_P2;PMS_P1;PMS_P2;Temp;Humidity;BMP_temperature;BMP_pressure;BME280_temperature;BME280_humidity;BME280_pressure;Samples;Min_cycle;Max_cycle;Signal;HPM_P1;HPM_P2
2022/05/06 00:02:22;;;;;;;;;;;;;;;8.55;35.83;101415.53;1697162;83;21006;-70
2022/05/06 00:04:49;;;;;;;5.63;4.07;;;;;;;8.52;36.00;101415.84;1694418;83;20114;-70
2022/05/06 00:07:16;;;;;;;4.70;4.15;;;;;;;8.43;36.17;101419.39;1688515;85;21053;-70
2022/05/06 00:09:44;;;;;;;8.60;5.40;;;;;;;8.41;36.10;101421.33;1695338;83;21064;-70
2022/05/06 00:12:18;;;;;;;8.70;5.13;;;;;;;8.40;36.38;101421.83;1694681;83;21636;-71
2022/05/06 00:14:44;;;;;;;13.27;6.23;;;;;;;8.37;36.59;101414.97;1694727;83;21639;-70
2022/05/06 00:17:10;;;;;;;6.57;5.40;;;;;;;8.32;36.80;101417.22;1694418;83;21054;-70
2022/05/06 00:19:38;;;;;;;5.67;4.33;;;;;;;8.30;36.93;101421.02;1694662;84;21053;-70
2022/05/06 00:22:04;;;;;;;6.25;4.72;;;;;;;8.26;36.60;101416.48;1694352;83;21010;-70
2022/05/06 00:24:31;;;;;;;6.07;4.63;;;;;;;8.25;37.14;101424.13;1694556;84;21177;-70
2022/05/06 00:26:57;;;;;;;11.73;5.45;;;;;;;8.23;37.01;101422.58;1694995;83;21357;-70
2022/05/06 00:29:24;;;;;;;4.90;4.40;;;;;;;8.21;37.44;101426.70;1694737;83;21073;-70
2022/05/06 00:31:52;;;;;;;6.90;4.55;;;;;;;8.19;37.29;101431.33;1695123;83;21577;-70
2022/05/06 00:34:18;;;;;;;12.27;4.97;;;;;;;8.16;38.25;101421.02;1694583;83;21097;-70
2022/05/06 00:36:44;;;;;;;7.28;5.08;;;;;;;8.09;38.37;101425.23;1695081;83;21031;-70
2022/05/06 00:39:11;;;;;;;6.00;5.40;;;;;;;8.02;38.25;101424.13;1694458;83;21054;-69
2022/05/06 00:41:37;;;;;;;7.37;5.28;;;;;;;7.94;38.18;101422.20;1689191;83;21026;-69
2022/05/06 00:44:08;;;;;;;7.70;4.47;;;;;;;7.87;38.75;101425.91;1694579;83;20971;-69
2022/05/06 00:46:37;;;;;;;7.90;5.37;;;;;;;7.77;39.12;101426.44;1694669;83;21019;-70
2022/05/06 00:49:07;;;;;;;7.17;5.33;;;;;;;7.64;39.63;101421.94;1694491;84;20975;-70
2022/05/06 00:51:35;;;;;;;8.63;4.83;;;;;;;7.50;40.17;101424.55;1693945;83;21097;-70
2022/05/06 00:54:02;;;;;;;11.17;4.83;;;;;;;7.38;39.90;101422.51;1694551;83;22560;-69
2022/05/06 00:56:28;;;;;;;10.60;4.27;;;;;;;7.25;39.57;101412.68;1694420;83;21552;-69
2022/05/06 00:58:56;;;;;;;8.17;4.47;;;;;;;7.31;39.40;101416.09;1694457;83;21050;-70
2022/05/06 01:01:22;;;;;;;11.33;5.22;;;;;;;7.34;39.20;101418.47;1700473;83;21039;-69
2022/05/06 01:03:49;;;;;;;10.58;4.45;;;;;;;7.38;39.18;101417.20;1694260;84;21050;-70
2022/05/06 01:06:15;;;;;;;8.90;3.92;;;;;;;7.41;38.99;101416.94;1694480;83;21047;-70
2022/05/06 01:08:44;;;;;;;6.47;4.07;;;;;;;7.46;38.94;101412.05;1694249;83;21029;-69
2022/05/06 01:11:13;;;;;;;7.60;4.17;;;;;;;7.49;38.86;101410.42;1675868;83;21613;-70
2022/05/06 01:13:45;;;;;;;14.83;3.60;;;;;;;7.52;38.71;101415.45;1694538;83;21470;-70
2022/05/06 01:16:14;;;;;;;8.53;4.10;;;;;;;7.55;38.71;101415.66;1693839;83;21549;-70
2022/05/06 01:18:42;;;;;;;6.57;3.47;;;;;;;7.55;38.75;101409.87;1689542;83;21010;-70
2022/05/06 01:21:09;;;;;;;6.62;3.52;;;;;;;7.55;38.56;101419.63;1688840;83;21014;-69
2022/05/06 01:23:37;;;;;;;3.80;3.03;;;;;;;7.57;38.42;101417.67;1704531;83;21018;-70
2022/05/06 01:26:05;;;;;;;9.67;3.83;;;;;;;7.56;38.39;101422.14;1701798;83;21086;-69
2022/05/06 01:28:35;;;;;;;3.70;3.23;;;;;;;7.57;38.52;101419.00;1694138;83;21053;-70
2022/05/06 01:31:02;;;;;;;5.33;3.37;;;;;;;7.57;38.38;101417.67;1694480;85;21145;-69
2022/05/06 01:33:31;;;;;;;7.27;3.70;;;;;;;7.58;38.50;101419.36;1695048;83;21030;-69
2022/05/06 01:36:02;;;;;;;5.70;4.07;;;;;;;7.57;38.48;101419.86;1682085;83;21094;-70
2022/05/06 01:38:46;;;;;;;4.83;4.33;;;;;;;7.56;38.54;101424.80;1694831;83;21549;-70
2022/05/06 01:41:19;;;;;;;4.00;3.60;;;;;;;7.56;38.59;101423.47;1694637;83;21470;-70
2022/05/06 01:43:53;;;;;;;9.43;3.47;;;;;;;7.54;38.54;101418.80;1692935;83;21965;-69
2022/05/06 01:46:23;;;;;;;6.83;3.40;;;;;;;7.55;38.43;101422.28;1682510;83;21561;-69
2022/05/06 01:48:52;;;;;;;8.17;3.37;;;;;;;7.56;38.51;101426.13;1693662;84;21481;-69
2022/05/06 01:51:20;;;;;;;4.30;3.47;;;;;;;7.56;38.35;101422.14;1694387;83;21057;-69
2022/05/06 01:53:46;;;;;;;7.23;4.60;;;;;;;7.58;38.25;101424.66;1694533;85;21529;-70
2022/05/06 01:56:19;;;;;;;5.33;4.37;;;;;;;7.59;38.40;101427.65;1662242;85;20990;-70
2022/05/06 01:58:47;;;;;;;6.27;4.30;;;;;;;7.60;38.67;101431.99;1694639;83;21057;-70
2022/05/06 02:01:14;;;;;;;6.03;3.43;;;;;;;7.59;38.42;101432.48;1694300;83;21049;-69
2022/05/06 02:06:29;;;;;;;6.67;4.42;;;;;;;7.57;38.52;101436.24;1694466;85;21113;-67
2022/05/06 02:09:03;;;;;;;7.40;4.13;;;;;;;7.54;38.58;101438.70;1695407;83;21085;-70
2022/05/06 02:11:31;;;;;;;5.33;3.77;;;;;;;7.53;38.69;101439.66;1695335;83;21108;-70
2022/05/06 02:13:57;;;;;;;7.67;4.85;;;;;;;7.51;38.75;101442.95;1694171;83;20998;-70
2022/05/06 02:16:37;;;;;;;11.43;5.20;;;;;;;7.50;39.01;101441.30;1644558;86;21588;-69
2022/05/06 02:19:22;;;;;;;16.93;7.33;;;;;;;7.46;39.13;101440.37;1694245;83;21087;-69
2022/05/06 02:21:54;;;;;;;12.30;6.47;;;;;;;7.42;39.46;101445.12;1692423;83;21562;-70
2022/05/06 02:24:39;;;;;;;13.83;5.97;;;;;;;7.38;39.90;101445.91;1694350;83;21045;-70
2022/05/06 02:27:16;;;;;;;6.30;5.17;;;;;;;7.34;39.63;101444.99;1694429;83;21609;-69
2022/05/06 02:33:12;;;;;;;8.70;5.50;;;;;;;7.33;39.73;101449.97;1695142;83;21060;-69
2022/05/06 02:34:56;;;;;;;5.90;4.53;;;;;;;7.32;39.66;101456.23;1694253;83;21042;-70
2022/05/06 02:37:22;;;;;;;;;;;;;;;7.29;39.52;101457.36;1696852;84;21091;-70
2022/05/06 02:39:49;;;;;;;6.73;3.30;;;;;;;7.31;39.13;101456.73;1694394;83;20110;-69
2022/05/06 02:42:17;;;;;;;8.90;5.47;;;;;;;7.29;38.93;101457.83;1694509;83;21026;-70
2022/05/06 02:44:46;;;;;;;6.83;4.10;;;;;;;7.34;39.14;101456.93;1694018;83;21065;-68
2022/05/06 02:47:12;;;;;;;7.40;4.97;;;;;;;7.38;39.26;101459.64;1694491;83;21041;-69
2022/05/06 02:49:39;;;;;;;10.15;4.08;;;;;;;7.40;39.55;101454.57;1694374;85;21610;-70
2022/05/06 02:52:09;;;;;;;5.93;3.93;;;;;;;7.53;39.15;101456.91;1712653;83;22264;-70
2022/05/06 02:54:35;;;;;;;5.73;4.43;;;;;;;7.88;38.91;101458.13;1694595;83;21061;-69
2022/05/06 02:57:02;;;;;;;;;;;;;;;8.37;38.12;101460.63;1696762;83;21042;-71
2022/05/06 02:59:33;;;;;;;9.43;4.00;;;;;;;8.86;37.05;101449.28;1694404;83;20098;-72
2022/05/06 03:01:59;;;;;;;6.23;3.20;;;;;;;9.29;36.64;101451.70;1694251;83;20990;-71
2022/05/06 03:04:26;;;;;;;4.97;4.20;;;;;;;9.75;35.95;101451.05;1694752;85;20983;-71
2022/05/06 03:06:53;;;;;;;4.80;4.23;;;;;;;10.28;35.08;101451.90;1694430;83;21082;-71
2022/05/06 03:09:30;;;;;;;7.72;4.17;;;;;;;10.80;34.12;101447.45;1694579;83;21028;-72
2022/05/06 03:11:56;;;;;;;12.07;3.42;;;;;;;11.09;33.18;101430.52;1694243;83;21037;-72
2022/05/06 03:14:23;;;;;;;8.73;4.60;;;;;;;11.40;33.05;101445.88;1694683;83;21517;-70
2022/05/06 03:17:07;;;;;;;5.67;4.17;;;;;;;11.70;32.76;101448.88;1695705;83;21031;-73
2022/05/06 03:19:33;;;;;;;5.90;5.00;;;;;;;12.13;32.48;101449.97;1694689;83;21558;-72
2022/05/06 03:22:01;;;;;;;8.15;4.83;;;;;;;12.56;32.42;101449.16;1694513;83;21094;-72
2022/05/06 03:27:01;;;;;;;11.28;4.50;;;;;;;13.52;30.73;101444.38;1800829;79;22328;-73
2022/05/06 03:29:27;;;;;;;;;;;;;;;13.86;30.22;101438.53;1789693;80;20976;-73
2022/05/06 03:31:57;;;;;;;5.35;3.35;;;;;;;14.17;28.83;101445.59;1768317;80;20208;-72
2022/05/06 03:34:23;;;;;;;11.75;3.37;;;;;;;14.37;28.58;101452.06;1732616;80;21026;-73
2022/05/06 03:36:49;;;;;;;5.80;3.22;;;;;;;14.60;27.81;101454.65;1727882;83;21144;-72
2022/05/06 03:39:16;;;;;;;4.10;3.37;;;;;;;14.59;27.46;101454.31;1724668;83;21112;-73
2022/05/06 03:41:44;;;;;;;6.47;3.80;;;;;;;14.48;27.50;101457.44;1720901;82;21081;-73
2022/05/06 03:44:10;;;;;;;;;;;;;;;14.46;27.70;101452.77;1729958;82;21295;-71
2022/05/06 03:46:38;;;;;;;3.72;3.42;;;;;;;14.59;27.57;101456.99;1719996;83;20187;-72
2022/05/06 03:49:05;;;;;;;4.05;2.85;;;;;;;14.52;27.27;101460.09;1715893;82;21497;-71
2022/05/06 03:51:32;;;;;;;9.48;3.52;;;;;;;14.49;27.28;101459.11;1703302;83;21061;-72
2022/05/06 03:54:08;;;;;;;5.03;4.05;;;;;;;14.48;27.50;101464.66;1724759;83;21046;-71
2022/05/06 03:56:34;;;;;;;;;;;;;;;14.63;27.19;101466.02;1739926;81;21116;-72
2022/05/06 03:59:03;;;;;;;3.83;2.75;;;;;;;14.81;27.13;101469.14;1725067;81;20495;-73
2022/05/06 04:01:29;;;;;;;6.30;3.50;;;;;;;15.13;26.78;101469.17;1729520;81;21539;-73
2022/05/06 04:03:57;;;;;;;5.42;3.77;;;;;;;15.40;26.64;101473.98;1722556;82;21109;-73
2022/05/06 04:06:26;;;;;;;8.38;3.02;;;;;;;15.57;26.57;101478.06;1713260;82;21241;-73
2022/05/06 04:08:55;;;;;;;3.35;2.92;;;;;;;15.85;26.47;101474.59;1723597;83;21079;-72
2022/05/06 04:11:21;;;;;;;3.98;3.50;;;;;;;16.33;26.24;101476.03;1728488;82;21026;-71
2022/05/06 04:13:49;;;;;;;6.57;3.23;;;;;;;16.72;25.59;101471.88;1751355;82;21040;-72
2022/05/06 04:16:16;;;;;;;7.90;3.58;;;;;;;17.12;25.25;101473.36;1750364;82;21524;-72
2022/05/06 04:18:43;;;;;;;6.62;4.15;;;;;;;17.49;25.00;101471.14;1751168;82;21051;-72
2022/05/06 04:23:55;;;;;;;4.78;3.12;;;;;;;17.81;23.88;101470.00;1751429;81;20149;-71
2022/05/06 04:26:21;;;;;;;4.28;2.72;;;;;;;17.71;24.17;101470.43;1732933;82;21632;-72
2022/05/06 04:28:52;;;;;;;4.60;3.12;;;;;;;17.84;23.92;101470.95;1726875;82;22252;-72
2022/05/06 04:31:18;;;;;;;7.60;2.98;;;;;;;17.75;24.00;101468.15;1705767;82;21145;-72
2022/05/06 04:33:45;;;;;;;8.55;3.37;;;;;;;17.71;24.15;101469.91;1729528;81;21063;-72
2022/05/06 04:36:14;;;;;;;6.55;2.37;;;;;;;17.73;24.18;101476.44;1713442;84;21531;-74
2022/05/06 04:38:42;;;;;;;7.12;3.20;;;;;;;17.77;24.29;101478.20;1714426;84;21474;-73
2022/05/06 04:41:08;;;;;;;8.10;3.80;;;;;;;17.98;24.27;101473.95;1714485;83;22384;-70
2022/05/06 04:43:34;;;;;;;;;;;;;;;18.31;24.03;101475.77;1716969;84;21547;-71
2022/05/06 04:46:02;;;;;;;8.20;4.37;;;;;;;18.48;23.93;101480.18;1676280;83;20116;-72
2022/05/06 04:48:29;;;;;;;6.78;4.45;;;;;;;18.55;23.72;101482.31;1656002;85;21387;-71
2022/05/06 04:50:57;;;;;;;11.10;5.80;;;;;;;18.45;23.67;101482.77;1713374;82;21517;-73
2022/05/06 04:53:24;;;;;;;8.18;7.28;;;;;;;18.44;23.94;101481.13;1711022;82;21029;-73
2022/05/06 04:55:50;;;;;;;13.35;5.83;;;;;;;18.58;23.70;101492.70;1747159;81;20998;-73
2022/05/06 04:58:19;;;;;;;8.53;5.75;;;;;;;18.48;23.64;101486.93;1752163;81;21020;-73
2022/05/06 05:00:47;;;;;;;9.33;5.60;;;;;;;18.44;23.93;101490.58;1754783;82;21097;-72
2022/05/06 05:03:13;;;;;;;8.90;5.37;;;;;;;18.52;23.59;101488.69;1727960;82;20971;-73
2022/05/06 05:05:41;;;;;;;9.70;5.90;;;;;;;18.61;23.73;101480.13;1754267;81;21585;-73
2022/05/06 05:08:09;;;;;;;9.15;5.08;;;;;;;18.78;23.71;101488.58;1754821;81;21421;-73
2022/05/06 05:10:37;;;;;;;5.20;4.03;;;;;;;19.05;23.52;101485.77;1753110;81;21086;-72
2022/05/06 05:13:06;;;;;;;7.45;4.12;;;;;;;19.63;22.63;101480.16;1759312;81;21017;-73
2022/05/06 05:15:33;;;;;;;5.62;5.08;;;;;;;19.63;22.63;101480.16;1768541;81;21026;-74
2022/05/06 05:17:59;;;;;;;;;;;;;;;19.36;22.80;101475.45;1773581;81;21504;-72
2022/05/06 05:20:26;;;;;;;8.63;4.97;;;;;;;18.79;23.84;101490.75;1750468;81;20170;-75
2022/05/06 05:22:53;;;;;;;5.22;4.70;;;;;;;18.63;23.63;101488.02;1754492;81;21015;-73
2022/05/06 05:25:20;;;;;;;6.10;4.95;;;;;;;18.48;24.07;101493.15;1767974;81;21062;-74
2022/05/06 05:27:46;;;;;;;5.30;3.83;;;;;;;18.73;24.40;101487.56;1757026;81;21153;-72
2022/05/06 05:30:14;;;;;;;7.58;3.80;;;;;;;18.73;24.40;101487.56;1748314;81;21046;-73
2022/05/06 05:32:42;;;;;;;6.75;4.08;;;;;;;18.89;24.39;101488.96;1749702;81;21057;-73
2022/05/06 05:35:10;;;;;;;6.33;3.90;;;;;;;18.97;23.90;101492.25;1736863;82;21118;-73
2022/05/06 05:37:39;;;;;;;8.03;3.80;;;;;;;19.13;23.37;101494.95;1701187;83;21562;-74
2022/05/06 05:40:08;;;;;;;5.45;4.30;;;;;;;19.10;23.62;101494.05;1719710;83;21049;-74
2022/05/06 05:42:37;;;;;;;10.20;3.80;;;;;;;19.21;23.48;101494.72;1697693;83;20991;-74
2022/05/06 05:50:38;;;;;;;6.35;3.62;;;;;;;18.85;23.07;101495.31;1708080;83;21154;-72
2022/05/06 05:53:05;;;;;;;6.70;4.20;;;;;;;17.93;24.39;101491.27;1759489;80;20954;-73
2022/05/06 05:55:34;;;;;;;5.60;2.90;;;;;;;17.93;24.39;101491.27;1742094;81;20994;-73
2022/05/06 05:58:02;;;;;;;8.33;3.42;;;;;;;17.64;24.66;101487.94;1753766;81;21122;-74
2022/05/06 06:00:29;;;;;;;6.80;3.35;;;;;;;17.35;25.29;101497.27;1759246;81;21474;-73
2022/05/06 06:02:56;;;;;;;4.72;3.30;;;;;;;17.20;25.59;101501.48;1757352;81;21019;-74
2022/05/06 06:05:23;;;;;;;6.10;3.20;;;;;;;17.28;25.59;101502.62;1757137;81;21149;-75
2022/05/06 06:07:49;;;;;;;2.42;2.22;;;;;;;17.28;25.84;101496.41;1757416;81;21088;-73
2022/05/06 06:10:18;;;;;;;3.92;2.12;;;;;;;17.35;25.89;101495.91;1757244;81;21062;-73
2022/05/06 06:12:44;;;;;;;1.75;1.32;;;;;;;17.42;25.67;101497.26;1718205;81;21058;-75
2022/05/06 06:15:11;;;;;;;2.85;1.77;;;;;;;17.36;25.27;101496.21;1707880;83;21056;-73
2022/05/06 06:17:38;;;;;;;5.25;1.98;;;;;;;17.40;25.47;101495.28;1689095;84;21146;-72
2022/05/06 06:20:08;;;;;;;3.98;1.70;;;;;;;17.49;25.63;101494.05;1700182;84;21148;-73
2022/05/06 06:22:36;;;;;;;1.87;1.50;;;;;;;17.71;25.55;101486.08;1679867;84;21002;-74
2022/05/06 06:25:07;;;;;;;3.05;1.20;;;;;;;17.74;25.30;101487.52;1691876;84;21075;-75
2022/05/06 06:27:34;;;;;;;3.22;1.00;;;;;;;17.91;25.46;101485.27;1700270;84;21557;-75
2022/05/06 06:30:04;;;;;;;3.27;1.07;;;;;;;18.41;24.70;101489.64;1699831;84;21112;-74
2022/05/06 06:32:33;;;;;;;2.42;0.72;;;;;;;18.82;24.61;101487.66;1690060;84;21031;-73
2022/05/06 06:35:00;;;;;;;4.87;1.25;;;;;;;19.32;23.85;101486.41;1722980;83;21546;-74
2022/05/06 06:37:28;;;;;;;1.02;0.50;;;;;;;19.34;23.08;101491.61;1717189;83;21227;-74
2022/05/06 06:39:54;;;;;;;2.60;0.55;;;;;;;18.91;23.44;101489.57;1728204;83;21041;-74
2022/05/06 06:42:20;;;;;;;;;;;;;;;18.51;24.31;101492.41;1720817;83;21013;-74
2022/05/06 06:44:51;;;;;;;1.02;0.40;;;;;;;17.92;23.90;101484.77;1720849;82;20200;-73
2022/05/06 06:47:26;;;;;;;1.55;0.60;;;;;;;17.92;23.90;101484.77;1723718;82;21046;-73
2022/05/06 06:50:07;;;;;;;1.62;0.45;;;;;;;17.88;24.07;101485.70;1703064;83;21012;-74
2022/05/06 06:52:36;;;;;;;2.40;0.70;;;;;;;18.08;23.83;101487.86;1729521;82;21058;-73
2022/05/06 06:55:04;;;;;;;1.15;0.35;;;;;;;18.34;23.47;101483.95;1733426;82;21088;-73
2022/05/06 06:57:30;;;;;;;0.30;0.30;;;;;;;18.34;23.47;101483.95;1727822;83;21313;-74
2022/05/06 06:59:56;;;;;;;1.30;0.30;;;;;;;18.65;23.33;101487.28;1729001;83;20994;-75
2022/05/06 07:02:22;;;;;;;0.65;0.50;;;;;;;18.99;22.40;101487.98;1718201;82;21080;-72
2022/05/06 07:04:51;;;;;;;1.35;0.40;;;;;;;18.99;22.40;101487.98;1719374;83;21206;-73
2022/05/06 07:12:48;;;;;;;0.82;0.20;;;;;;;18.24;22.84;101487.09;1729695;82;21068;-72
2022/05/06 07:15:15;;;;;;;3.85;0.45;;;;;;;18.08;22.62;101490.55;1728807;82;21092;-73
2022/05/06 07:17:41;;;;;;;1.80;0.40;;;;;;;17.86;22.14;101487.78;1724072;83;21084;-71
2022/05/06 07:20:10;;;;;;;1.65;0.30;;;;;;;17.65;21.98;101486.92;1728617;83;21024;-74
2022/05/06 07:22:37;;;;;;;1.75;0.28;;;;;;;17.58;22.03;101487.43;1727692;83;21130;-74
2022/05/06 07:25:07;;;;;;;2.22;0.40;;;;;;;17.59;22.40;101485.03;1719270;83;21368;-71
2022/05/06 07:27:36;;;;;;;3.67;0.30;;;;;;;17.68;22.03;101454.66;1727238;83;21572;-73
2022/05/06 07:30:04;;;;;;;4.70;0.42;;;;;;;17.82;20.97;101477.89;1710980;83;21083;-71
2022/05/06 07:32:30;;;;;;;4.58;0.80;;;;;;;17.88;21.21;101483.00;1720056;82;21520;-73
2022/05/06 07:34:56;;;;;;;2.15;0.62;;;;;;;17.63;21.39;101488.14;1737370;82;21057;-74
2022/05/06 07:37:23;;;;;;;4.70;0.47;;;;;;;17.49;22.31;101491.36;1728169;83;21097;-74
2022/05/06 07:39:49;;;;;;;2.52;0.40;;;;;;;17.44;22.13;101483.05;1692729;85;21086;-72
2022/05/06 07:42:17;;;;;;;1.65;0.40;;;;;;;17.37;21.90;101481.72;1674743;85;21121;-72
2022/05/06 07:44:43;;;;;;;1.30;0.30;;;;;;;17.25;21.86;101478.80;1723156;83;21553;-73
2022/05/06 07:47:09;;;;;;;;;;;;;;;17.25;21.86;101478.80;1729142;81;21068;-72
2022/05/06 07:49:37;;;;;;;1.37;0.40;;;;;;;17.18;22.45;101481.14;1744504;81;20133;-74
2022/05/06 07:52:04;;;;;;;2.65;0.37;;;;;;;17.00;22.52;101479.87;1750634;81;21129;-73
2022/05/06 07:54:30;;;;;;;4.15;0.72;;;;;;;16.97;22.86;101480.79;1739698;82;20990;-73
2022/05/06 07:56:56;;;;;;;1.32;0.40;;;;;;;16.87;23.01;101486.56;1736960;82;20997;-73
2022/05/06 07:59:22;;;;;;;1.30;0.68;;;;;;;16.80;23.31;101483.83;1736299;82;21011;-73
2022/05/06 08:04:36;;;;;;;1.80;0.63;;;;;;;16.46;23.76;101484.20;1691657;82;21113;-72
2022/05/06 08:07:05;;;;;;;1.87;0.50;;;;;;;16.44;24.21;101487.58;1703201;83;21014;-74
2022/05/06 08:09:33;;;;;;;1.10;0.50;;;;;;;16.50;24.43;101476.53;1699799;83;21070;-71
2022/05/06 08:11:59;;;;;;;5.10;0.80;;;;;;;16.58;24.42;101483.11;1667842;84;21017;-72
2022/05/06 08:14:25;;;;;;;2.02;0.60;;;;;;;16.69;24.28;101471.77;1712942;83;21063;-72
2022/05/06 08:16:53;;;;;;;0.40;0.40;;;;;;;16.85;24.36;101473.30;1717744;82;21158;-74
2022/05/06 08:19:21;;;;;;;1.82;0.50;;;;;;;16.99;24.10;101463.41;1717748;83;21095;-72
2022/05/06 08:21:47;;;;;;;2.33;0.53;;;;;;;16.99;24.11;101465.25;1717756;82;20975;-74
2022/05/06 08:24:13;;;;;;;1.95;0.30;;;;;;;16.99;23.92;101456.68;1717897;83;21538;-72
2022/05/06 08:26:41;;;;;;;1.95;0.50;;;;;;;17.04;23.76;101462.27;1678255;84;21639;-73
2022/05/06 08:29:07;;;;;;;3.42;0.72;;;;;;;17.04;23.62;101470.34;1668551;85;21036;-71
2022/05/06 08:31:37;;;;;;;1.40;0.30;;;;;;;17.10;23.68;101460.62;1713655;83;21081;-74
2022/05/06 08:34:02;;;;;;;3.08;0.50;;;;;;;17.16;23.79;101457.63;1705192;84;21005;-73
2022/05/06 08:36:28;;;;;;;;;;;;;;;17.21;23.63;101469.97;1703634;83;21064;-72
2022/05/06 08:38:54;;;;;;;3.05;0.55;;;;;;;17.10;23.14;101461.97;1700013;83;20130;-72
2022/05/06 08:41:23;;;;;;;6.25;0.42;;;;;;;16.96;23.51;101461.64;1700488;83;21069;-74
2022/05/06 08:43:49;;;;;;;3.15;0.57;;;;;;;17.02;23.57;101460.81;1700279;83;21049;-74
2022/05/06 08:51:50;;;;;;;3.37;0.33;;;;;;;17.24;23.62;101456.10;1722272;83;21600;-73
2022/05/06 08:54:17;;;;;;;1.90;0.30;;;;;;;17.15;23.16;101458.15;1722552;82;21056;-73
2022/05/06 08:56:44;;;;;;;2.17;0.78;;;;;;;16.99;23.76;101459.86;1707166;82;21040;-73
2022/05/06 08:59:10;;;;;;;;;;;;;;;16.83;23.95;101460.55;1702493;83;21026;-72
2022/05/06 09:01:37;;;;;;;4.65;1.02;;;;;;;16.84;24.06;101454.15;1700252;84;20158;-73
2022/05/06 09:04:04;;;;;;;3.75;0.37;;;;;;;16.89;23.81;101444.92;1700677;84;21097;-72
2022/05/06 09:06:33;;;;;;;1.85;0.30;;;;;;;16.92;24.01;101443.70;1700047;84;21537;-72
2022/05/06 09:09:01;;;;;;;1.52;0.40;;;;;;;16.97;24.09;101438.55;1700512;83;21008;-74
2022/05/06 09:16:39;;;;;;;1.82;0.57;;;;;;;17.01;23.23;101442.98;1717373;83;21098;-71
2022/05/06 09:16:50;;;;;;;1.90;0.82;;;;;;;16.95;23.51;101441.11;1696461;83;21082;-72
2022/05/06 09:19:27;;;;;;;1.07;0.20;;;;;;;16.97;23.54;101437.20;1705124;83;21821;-72
2022/05/06 09:22:09;;;;;;;1.32;0.72;;;;;;;17.08;23.67;101431.22;1664760;85;21075;-72
2022/05/06 09:24:50;;;;;;;3.33;0.50;;;;;;;17.14;22.79;101430.91;1707165;83;21105;-73
2022/05/06 09:27:23;;;;;;;1.00;0.40;;;;;;;17.25;23.17;101433.00;1711838;83;21086;-75
2022/05/06 09:29:54;;;;;;;0.33;0.20;;;;;;;17.23;22.26;101434.22;1699433;83;21029;-72
2022/05/06 09:32:27;;;;;;;3.33;0.40;;;;;;;17.10;22.89;101429.64;1700474;83;20994;-72
2022/05/06 09:35:18;;;;;;;1.52;0.50;;;;;;;17.05;23.05;101428.10;1688587;84;21093;-73
2022/05/06 09:37:47;;;;;;;4.42;0.40;;;;;;;17.10;23.33;101426.45;1680523;85;21038;-73
2022/05/06 09:40:28;;;;;;;1.10;0.47;;;;;;;17.18;23.57;101426.77;1681746;85;21060;-73
2022/05/06 09:42:58;;;;;;;1.95;0.28;;;;;;;17.18;23.28;101432.16;1684758;84;20971;-75
2022/05/06 09:45:33;;;;;;;1.12;0.20;;;;;;;17.15;23.70;101425.82;1695691;83;21085;-73
2022/05/06 09:48:02;;;;;;;0.85;0.57;;;;;;;17.19;23.51;101418.98;1700233;84;21099;-73
2022/05/06 09:50:38;;;;;;;1.22;0.60;;;;;;;17.24;23.22;101417.03;1697571;84;21055;-74
2022/05/06 09:53:10;;;;;;;0.85;0.20;;;;;;;17.29;23.15;101422.12;1681409;85;21534;-73
2022/05/06 09:55:39;;;;;;;3.37;0.30;;;;;;;17.34;22.46;101414.74;1740429;81;21546;-72
2022/05/06 09:58:06;;;;;;;1.98;0.45;;;;;;;17.24;22.66;101427.28;1738415;82;21019;-72
2022/05/06 10:00:33;;;;;;;1.02;0.20;;;;;;;17.19;22.32;101421.67;1731074;81;21002;-74
2022/05/06 10:03:02;;;;;;;1.07;0.45;;;;;;;17.11;22.44;101425.92;1717385;82;20999;-75
2022/05/06 10:05:32;;;;;;;3.02;0.30;;;;;;;17.14;22.61;101424.17;1715984;83;21243;-74
2022/05/06 10:08:18;;;;;;;2.20;0.30;;;;;;;17.19;22.30;101421.67;1733928;82;21007;-74
2022/05/06 10:10:50;;;;;;;1.17;0.40;;;;;;;17.24;22.26;101419.73;1722509;81;21562;-73
2022/05/06 10:13:22;;;;;;;2.05;0.53;;;;;;;17.28;22.61;101419.09;1715943;80;21008;-73
2022/05/06 10:15:51;;;;;;;3.12;0.50;;;;;;;17.40;22.32;101419.83;1719592;83;21087;-70
2022/05/06 10:18:43;;;;;;;0.50;0.30;;;;;;;17.54;22.39;101413.41;1710479;83;21059;-75
2022/05/06 10:21:13;;;;;;;1.15;0.40;;;;;;;17.65;22.02;101413.27;1708602;83;21448;-73
2022/05/06 10:23:56;;;;;;;2.87;0.45;;;;;;;17.71;22.12;101411.93;1715715;82;21006;-71
2022/05/06 10:26:47;;;;;;;1.07;0.40;;;;;;;17.79;22.09;101405.48;1715932;82;21060;-73
2022/05/06 10:32:28;;;;;;;2.15;0.40;;;;;;;17.92;22.55;101410.06;1727969;82;21372;-73
2022/05/06 10:35:08;;;;;;;4.05;0.60;;;;;;;17.94;22.62;101405.81;1741568;82;21114;-72
2022/05/06 10:37:44;;;;;;;1.10;0.40;;;;;;;17.89;22.41;101411.82;1744936;82;21079;-75
2022/05/06 10:40:29;;;;;;;1.00;0.57;;;;;;;17.82;22.79;101406.42;1745397;82;21548;-73
2022/05/06 10:42:57;;;;;;;4.42;0.45;;;;;;;17.71;22.10;101405.19;1712805;83;21057;-73
2022/05/06 10:45:33;;;;;;;5.53;0.78;;;;;;;17.55;22.46;101411.00;1702966;83;21013;-73
2022/05/06 10:48:01;;;;;;;0.68;0.33;;;;;;;17.42;22.87;101398.88;1708697;83;21025;-74
2022/05/06 10:50:38;;;;;;;1.70;0.72;;;;;;;17.36;23.24;101391.64;1701902;83;21179;-71
2022/05/06 10:53:05;;;;;;;2.72;0.42;;;;;;;17.41;23.78;101389.16;1714206;83;21400;-72
2022/05/06 10:55:31;;;;;;;0.57;0.40;;;;;;;17.57;23.87;101390.58;1703849;83;21081;-73
2022/05/06 10:58:05;;;;;;;1.25;0.68;;;;;;;17.70;23.50;101386.52;1700525;83;21069;-73
2022/05/06 11:00:38;;;;;;;4.60;0.50;;;;;;;17.87;22.56;101385.05;1676998;84;21157;-73
2022/05/06 11:03:03;;;;;;;4.00;0.78;;;;;;;17.87;22.56;101385.05;1684081;84;21082;-73
2022/05/06 11:05:30;;;;;;;1.40;0.80;;;;;;;17.87;22.74;101387.75;1664140;86;21069;-73
2022/05/06 11:07:59;;;;;;;1.25;0.57;;;;;;;17.84;22.87;101371.16;1654477;85;21556;-75
2022/05/06 11:10:29;;;;;;;4.08;0.75;;;;;;;17.81;22.90;101371.58;1678940;84;21037;-74
2022/05/06 11:12:58;;;;;;;0.65;0.62;;;;;;;17.82;23.16;101363.77;1677737;84;21519;-73
2022/05/06 11:15:31;;;;;;;5.45;0.50;;;;;;;17.86;23.25;101364.54;1708070;83;21581;-73
2022/05/06 11:18:02;;;;;;;1.40;0.57;;;;;;;17.94;22.91;101358.61;1730424;82;21022;-74
2022/05/06 11:20:32;;;;;;;3.45;0.65;;;;;;;17.96;22.92;101356.52;1700760;83;21156;-73
2022/05/06 11:23:04;;;;;;;3.52;0.60;;;;;;;17.95;22.91;101355.70;1668248;83;21030;-72
2022/05/06 11:25:37;;;;;;;1.95;0.68;;;;;;;17.97;22.43;101348.72;1673486;84;21063;-74
2022/05/06 11:28:13;;;;;;;2.02;0.68;;;;;;;17.99;22.04;101358.28;1655774;84;21062;-72
2022/05/06 11:30:47;;;;;;;2.77;0.65;;;;;;;18.05;21.99;101353.91;1695261;84;21208;-72
2022/05/06 11:33:28;;;;;;;12.45;0.95;;;;;;;18.02;21.73;101351.09;1671883;82;21609;-73
2022/05/06 11:36:03;;;;;;;1.55;0.60;;;;;;;17.93;22.13;101345.63;1669294;84;22205;-72
2022/05/06 11:38:38;;;;;;;2.05;0.40;;;;;;;17.87;22.25;101337.86;1647857;86;21568;-73
2022/05/06 11:41:11;;;;;;;4.50;0.53;;;;;;;17.87;22.25;101337.86;1712491;82;21428;-72
2022/05/06 11:43:43;;;;;;;1.42;0.40;;;;;;;17.90;22.39;101332.58;1716368;82;21562;-73
2022/05/06 11:49:07;;;;;;;0.47;0.37;;;;;;;17.99;21.84;101329.95;1726476;81;21539;-73
2022/05/06 11:51:42;;;;;;;2.20;0.62;;;;;;;17.90;21.81;101319.91;1719805;83;21089;-76
2022/05/06 11:54:10;;;;;;;2.87;0.55;;;;;;;17.90;21.81;101319.91;1725390;81;21039;-73
2022/05/06 11:56:37;;;;;;;3.33;0.93;;;;;;;17.86;22.55;101316.52;1732189;82;21327;-72
2022/05/06 11:59:04;;;;;;;1.98;0.72;;;;;;;17.88;22.79;101317.13;1747739;82;21019;-73
2022/05/06 12:01:34;;;;;;;2.98;0.62;;;;;;;17.97;22.48;101315.01;1718100;82;21625;-74
2022/05/06 12:04:11;;;;;;;1.95;0.68;;;;;;;18.00;22.48;101314.06;1684374;84;21071;-73
2022/05/06 12:06:44;;;;;;;1.55;0.53;;;;;;;18.01;22.11;101308.98;1699112;84;21082;-71
2022/05/06 12:09:21;;;;;;;1.27;0.95;;;;;;;18.01;22.03;101310.34;1698952;83;21075;-74
2022/05/06 12:12:04;;;;;;;3.27;0.62;;;;;;;17.88;22.09;101299.61;1714497;82;21053;-73
2022/05/06 12:14:32;;;;;;;2.50;0.95;;;;;;;17.88;22.09;101299.61;1750804;80;21041;-75
2022/05/06 12:17:01;;;;;;;1.70;0.45;;;;;;;17.82;22.16;101299.91;1725324;82;21570;-72
2022/05/06 12:19:39;;;;;;;0.80;0.53;;;;;;;17.84;22.13;101296.50;1750623;82;21087;-73